Terminal Aerodrome Forecast
Issued by NWS Cleveland, OH

Home | Current Version | Previous Version | Graphics & Text | Print | Product List | Glossary On
Versions: 1 2 3 4 5 6 7 8 9 10 11 12 13 14 15 16 17
353
FTUS41 KCLE 262322
TAFCAK
TAF
KCAK 262322Z 2700/2724 25008KT P6SM FEW035 BKN150
     FM270100 24009KT P6SM SKC
     FM271500 24015G25KT P6SM FEW050=

USA.gov is the U.S. government's official web portal to all federal, state and local government web resources and services.